Terminal Aerodrome Forecast
Issued by NWS Buffalo, NY

Home | Current Version | Previous Version | Text Only | Print | Product List | Glossary On
Versions: 1 2 3 4 5 6 7 8 9 10 11 12 13 14 15 16 17 18 19 20 21 22 23 24 25 26
182
FTUS41 KBUF 271744
TAFROC
TAF
KROC 271744Z 2718/2818 26015G25KT P6SM SCT060
     FM272000 26011KT P6SM SCT060
     FM280000 VRB03KT P6SM SCT060
     FM280200 VRB03KT P6SM BKN060
     FM280900 VRB03KT P6SM BKN035
     FM281200 16005KT P6SM BKN120=

USA.gov is the U.S. government's official web portal to all federal, state and local government web resources and services.